Time;durP1;ratioP1;P1;durP2;ratioP2;P2;SDS_P1;SDS_P2;PMS_P1;PMS_P2;Temp;Humidity;BMP_temperature;BMP_pressure;BME280_temperature;BME280_humidity;BME280_pressure;Samples;Min_cycle;Max_cycle;Signal;HPM_P1;HPM_P2
2022/02/07 00:01:43;;;;;;;1.85;1.00;;;;;;;6.80;79.82;98160.47;2868995;82;21059;-72
2022/02/07 00:05:41;;;;;;;0.70;0.60;;;;;;;6.78;80.18;98150.55;2868673;82;21023;-72
2022/02/07 00:09:43;;;;;;;1.20;0.65;;;;;;;6.81;80.14;98152.03;2860723;81;21051;-72
2022/02/07 00:13:44;;;;;;;0.78;0.72;;;;;;;6.73;80.38;98153.30;2863811;82;21528;-70
2022/02/07 00:17:46;;;;;;;2.67;0.93;;;;;;;6.71;80.49;98156.09;2863437;82;21734;-71
2022/02/07 00:21:49;;;;;;;1.00;0.75;;;;;;;6.80;80.74;98139.80;2879128;82;21082;-71
2022/02/07 00:25:53;;;;;;;0.88;0.60;;;;;;;6.82;81.07;98145.28;2876993;82;21067;-72
2022/02/07 00:29:56;;;;;;;1.27;0.45;;;;;;;6.81;81.14;98131.73;2872366;82;21079;-72
2022/02/07 00:33:58;;;;;;;0.68;0.30;;;;;;;6.83;80.83;98131.56;2880327;82;21046;-71
2022/02/07 00:38:05;;;;;;;1.95;0.78;;;;;;;6.89;79.80;98111.14;2885174;82;21023;-72
2022/02/07 00:42:06;;;;;;;1.32;0.88;;;;;;;6.81;79.31;98097.86;2881468;82;21648;-71
2022/02/07 00:46:10;;;;;;;4.22;0.95;;;;;;;6.78;79.47;98092.41;2882392;82;21563;-72
2022/02/07 00:50:11;;;;;;;2.85;0.98;;;;;;;6.78;79.53;98095.05;2881532;82;21050;-73
2022/02/07 00:54:13;;;;;;;1.10;0.53;;;;;;;6.80;79.04;98079.02;2883409;82;21040;-72
2022/02/07 00:58:16;;;;;;;0.85;0.50;;;;;;;6.79;78.32;98076.89;2880662;82;21039;-72
2022/02/07 01:02:17;;;;;;;0.55;0.55;;;;;;;6.74;78.17;98077.02;2883609;82;21583;-72
2022/02/07 01:06:20;;;;;;;0.70;0.55;;;;;;;6.67;77.83;98078.12;2882369;82;21091;-71
2022/02/07 01:10:31;;;;;;;0.33;0.30;;;;;;;6.61;78.14;98080.88;2883468;82;21043;-72
2022/02/07 01:18:56;;;;;;;;;;;;;;;;;;;;;
2022/02/07 01:56:44;;;;;;;1.00;0.70;;;;;;;6.86;78.09;98088.96;2857106;82;21408;-72
2022/02/07 02:00:51;;;;;;;0.72;0.33;;;;;;;6.97;78.12;98083.90;2837749;83;21079;-71
2022/02/07 02:04:54;;;;;;;1.02;0.55;;;;;;;6.84;79.63;98067.15;2856945;81;21012;-72
2022/02/07 02:08:55;;;;;;;0.57;0.35;;;;;;;6.63;80.45;98088.16;2857056;82;21571;-72
2022/02/07 02:13:06;;;;;;;0.45;0.25;;;;;;;6.61;81.27;98095.41;2914101;81;21592;-72
2022/02/07 02:17:16;;;;;;;0.75;0.40;;;;;;;6.31;81.43;98104.11;2915667;81;22029;-72
2022/02/07 02:38:15;;;;;;;0.23;0.23;;;;;;;6.05;84.18;98158.15;2917617;81;21040;-72
2022/02/07 02:46:29;;;;;;;0.30;0.30;;;;;;;5.68;86.10;98191.49;2916052;81;21098;-71
2022/02/07 02:50:32;;;;;;;1.30;0.30;;;;;;;5.54;87.55;98206.00;2916718;81;21024;-72
2022/02/07 02:54:34;;;;;;;2.35;0.85;;;;;;;5.42;87.94;98206.67;2917008;81;21052;-72
2022/02/07 02:58:36;;;;;;;3.95;0.62;;;;;;;5.41;86.96;98222.14;2916202;81;21028;-72
2022/02/07 03:02:38;;;;;;;0.30;0.30;;;;;;;5.26;86.28;98242.36;2916259;81;21012;-72
2022/02/07 03:06:39;;;;;;;1.62;0.72;;;;;;;5.27;86.00;98240.08;2917561;81;20973;-72
2022/02/07 03:14:46;;;;;;;1.07;0.42;;;;;;;5.14;87.91;98261.97;2918208;81;21654;-70
2022/02/07 03:18:47;;;;;;;0.80;0.65;;;;;;;5.08;87.47;98265.14;2917961;81;21020;-71
2022/02/07 03:22:50;;;;;;;0.37;0.25;;;;;;;5.13;86.71;98274.80;2917569;81;21089;-72
2022/02/07 03:26:51;;;;;;;1.05;0.62;;;;;;;5.22;86.28;98287.13;2916627;81;21463;-72
2022/02/07 03:30:55;;;;;;;2.02;1.30;;;;;;;5.12;85.94;98302.13;2917233;81;21094;-73
2022/02/07 03:34:56;;;;;;;3.17;0.70;;;;;;;5.10;84.82;98306.69;2917552;81;21079;-72
2022/02/07 03:39:00;;;;;;;3.90;0.98;;;;;;;5.08;84.52;98300.25;2917123;81;21035;-73
2022/02/07 03:43:05;;;;;;;6.67;2.20;;;;;;;5.13;84.96;98336.73;2916604;81;21122;-71
2022/02/07 03:47:07;;;;;;;0.60;0.60;;;;;;;5.14;85.32;98344.49;2915797;81;21631;-71
2022/02/07 03:51:09;;;;;;;1.30;0.85;;;;;;;5.20;83.42;98327.30;2916903;81;21047;-70
2022/02/07 03:55:12;;;;;;;1.40;0.88;;;;;;;5.39;83.38;98350.66;2917451;81;21580;-72
2022/02/07 03:59:13;;;;;;;0.55;0.45;;;;;;;5.47;83.70;98367.92;2918111;81;21044;-69
2022/02/07 04:03:19;;;;;;;0.85;0.85;;;;;;;5.44;82.91;98374.80;2920645;81;21460;-72
2022/02/07 04:07:20;;;;;;;1.72;0.95;;;;;;;5.28;81.62;98374.87;2920592;81;21020;-71
2022/02/07 04:11:34;;;;;;;1.27;0.55;;;;;;;5.12;79.64;98369.34;2918900;81;20989;-72
2022/02/07 04:15:32;;;;;;;1.55;0.68;;;;;;;4.98;77.61;98391.16;2919131;81;21067;-71
2022/02/07 04:19:35;;;;;;;7.05;1.37;;;;;;;4.93;77.33;98417.56;2921495;81;21062;-71
2022/02/07 04:23:37;;;;;;;0.60;0.60;;;;;;;4.84;78.30;98441.61;2921863;81;21044;-71
2022/02/07 04:27:39;;;;;;;1.27;0.57;;;;;;;4.71;79.40;98425.55;2921128;81;21048;-70
2022/02/07 04:31:41;;;;;;;3.90;1.40;;;;;;;4.69;79.17;98459.59;2921463;81;21047;-70
2022/02/07 04:35:43;;;;;;;1.27;0.68;;;;;;;4.72;79.72;98458.00;2921623;81;21305;-71
2022/02/07 04:39:45;;;;;;;1.95;0.70;;;;;;;4.66;81.43;98455.41;2922721;81;21549;-70
2022/02/07 04:43:52;;;;;;;1.17;0.60;;;;;;;4.55;80.53;98477.41;2922629;81;21545;-70
2022/02/07 04:52:00;;;;;;;0.78;0.62;;;;;;;4.35;78.08;98456.75;2920630;81;21057;-70
2022/02/07 05:00:30;;;;;;;1.27;0.68;;;;;;;4.10;78.18;98475.91;2921659;81;21545;-70
2022/02/07 05:04:33;;;;;;;2.27;0.47;;;;;;;3.89;79.37;98479.88;2917286;81;21047;-72
2022/02/07 05:17:07;;;;;;;3.02;0.93;;;;;;;3.77;80.05;98568.53;2920295;81;21083;-72
2022/02/07 05:21:07;;;;;;;1.72;0.42;;;;;;;3.75;80.43;98571.77;2917587;81;21040;-73
2022/02/07 05:25:09;;;;;;;2.15;0.23;;;;;;;3.66;81.64;98600.10;2916724;81;21027;-73
2022/02/07 05:29:12;;;;;;;2.62;0.70;;;;;;;3.52;82.57;98624.88;2916878;81;21099;-74
2022/02/07 05:33:13;;;;;;;1.95;0.40;;;;;;;3.46;86.49;98618.30;2917668;81;21762;-74
2022/02/07 05:37:16;;;;;;;3.72;0.53;;;;;;;3.28;88.08;98615.34;2917541;81;21040;-73
2022/02/07 05:41:19;;;;;;;2.22;0.30;;;;;;;3.26;88.03;98649.62;2917335;81;21035;-72
2022/02/07 05:45:21;;;;;;;1.77;0.82;;;;;;;3.23;88.32;98683.17;2917655;81;21055;-72
2022/02/07 05:49:24;;;;;;;2.35;0.78;;;;;;;3.28;87.94;98704.20;2917848;81;21028;-71
2022/02/07 05:53:26;;;;;;;2.10;0.53;;;;;;;3.22;86.74;98720.45;2917790;81;20996;-70
2022/02/07 05:57:28;;;;;;;1.15;0.65;;;;;;;3.33;86.09;98718.31;2917153;81;21190;-71
2022/02/07 06:01:29;;;;;;;1.77;1.47;;;;;;;3.31;85.90;98733.38;2919136;81;21569;-71
2022/02/07 06:05:32;;;;;;;1.55;0.82;;;;;;;3.44;85.13;98743.78;2918922;81;21056;-71
2022/02/07 06:09:34;;;;;;;1.40;0.47;;;;;;;3.49;84.31;98763.15;2914860;81;21533;-71
2022/02/07 06:13:37;;;;;;;2.00;1.20;;;;;;;3.50;83.80;98794.56;2836780;83;21046;-71
2022/02/07 06:17:40;;;;;;;1.47;0.75;;;;;;;3.59;83.32;98777.73;2836505;83;21022;-72
2022/02/07 06:21:42;;;;;;;2.45;1.00;;;;;;;3.69;82.93;98806.30;2836719;83;21049;-70
2022/02/07 06:25:46;;;;;;;3.47;1.20;;;;;;;3.69;83.18;98826.87;2836642;83;21014;-70
2022/02/07 06:29:49;;;;;;;1.07;0.53;;;;;;;3.68;83.64;98820.41;2836703;83;21528;-71
2022/02/07 06:33:51;;;;;;;0.90;0.57;;;;;;;3.67;83.40;98848.97;2837069;83;21093;-72
2022/02/07 06:37:54;;;;;;;1.42;0.55;;;;;;;3.66;83.07;98823.17;2836639;83;21053;-71
2022/02/07 06:41:56;;;;;;;4.58;1.82;;;;;;;3.58;85.24;98868.92;2837028;83;21074;-72
2022/02/07 06:45:58;;;;;;;0.68;0.60;;;;;;;3.64;86.88;98888.66;2837198;83;21070;-72
2022/02/07 06:50:00;;;;;;;2.50;1.12;;;;;;;3.53;86.33;98908.70;2863190;82;21639;-69
2022/02/07 06:54:02;;;;;;;2.60;0.70;;;;;;;3.63;87.26;98919.86;2865687;82;21711;-70
2022/02/07 06:58:04;;;;;;;0.95;0.42;;;;;;;3.51;87.59;98921.13;2866416;82;21032;-72
2022/02/07 07:02:07;;;;;;;1.37;0.75;;;;;;;3.50;89.17;98919.45;2880581;82;21051;-71
2022/02/07 07:06:09;;;;;;;1.22;0.68;;;;;;;3.39;89.90;98945.71;2885144;82;20996;-72
2022/02/07 07:10:11;;;;;;;4.00;0.82;;;;;;;3.31;90.14;98930.50;2885147;82;21518;-73
2022/02/07 07:14:27;;;;;;;1.72;0.75;;;;;;;3.22;90.23;99002.97;2885344;81;21059;-71
2022/02/07 07:18:20;;;;;;;;;;;;;;;3.23;90.09;98995.45;2887118;82;21078;-70
2022/02/07 07:22:23;;;;;;;6.10;2.95;;;;;;;3.25;90.75;98996.66;2846180;83;20155;-71
2022/02/07 07:26:30;;;;;;;1.52;0.88;;;;;;;3.39;90.37;99004.37;2873517;81;21049;-72
2022/02/07 07:30:36;;;;;;;2.17;0.85;;;;;;;3.45;90.15;99018.86;2871646;82;20978;-72
2022/02/07 07:34:36;;;;;;;4.65;1.22;;;;;;;3.44;89.80;99031.64;2881726;82;20975;-71
2022/02/07 07:38:38;;;;;;;2.70;0.98;;;;;;;3.50;88.87;99023.30;2881525;82;21070;-72
2022/02/07 07:42:39;;;;;;;2.20;1.22;;;;;;;3.59;88.56;99034.13;2881495;82;21034;-70
2022/02/07 07:46:41;;;;;;;4.20;1.72;;;;;;;3.60;88.19;99046.31;2882649;82;20996;-71
2022/02/07 08:03:29;;;;;;;2.67;1.60;;;;;;;3.50;89.94;99079.02;2858870;81;21069;-72
2022/02/07 08:07:36;;;;;;;2.70;0.82;;;;;;;3.48;88.43;99072.53;2870319;81;21038;-72
2022/02/07 08:11:39;;;;;;;4.83;1.12;;;;;;;3.56;88.53;99091.25;2912884;81;20982;-73
2022/02/07 08:15:39;;;;;;;4.10;1.70;;;;;;;3.62;88.51;99099.14;2914868;80;21010;-70
2022/02/07 08:19:45;;;;;;;1.98;1.15;;;;;;;3.83;87.78;99113.86;2913930;81;21034;-71
2022/02/07 08:23:45;;;;;;;1.75;0.98;;;;;;;3.85;86.33;99124.28;2913926;81;21429;-72
2022/02/07 08:27:47;;;;;;;1.82;0.90;;;;;;;3.74;85.69;99122.44;2914472;81;21041;-72
2022/02/07 08:31:49;;;;;;;2.10;1.10;;;;;;;3.85;85.58;99129.55;2914903;81;21002;-70
2022/02/07 08:35:51;;;;;;;2.45;1.87;;;;;;;3.83;86.09;99166.48;2914613;81;21072;-71
2022/02/07 08:39:53;;;;;;;3.72;2.17;;;;;;;3.75;91.30;99181.98;2914123;81;21635;-71
2022/02/07 08:43:55;;;;;;;2.92;2.30;;;;;;;3.48;100.00;99205.31;2914032;81;21550;-71
2022/02/07 08:47:57;;;;;;;5.65;1.55;;;;;;;3.57;92.34;99206.00;2913093;81;21107;-71
2022/02/07 08:51:58;;;;;;;4.10;2.72;;;;;;;3.64;90.75;99216.94;2913254;81;21523;-73
2022/02/07 08:56:03;;;;;;;2.80;1.85;;;;;;;3.76;89.61;99217.00;2913726;80;21112;-72
2022/02/07 09:00:15;;;;;;;20.97;9.83;;;;;;;3.90;89.53;99218.64;2905429;80;21052;-73
2022/02/07 09:08:49;;;;;;;2.67;1.57;;;;;;;4.13;87.34;99220.50;2801579;84;21037;-71
2022/02/07 09:12:31;;;;;;;4.05;1.90;;;;;;;4.21;85.26;99232.25;2847319;83;21807;-74
2022/02/07 09:16:33;;;;;;;10.43;2.45;;;;;;;4.25;85.48;99244.23;2836891;83;21686;-74
2022/02/07 09:20:36;;;;;;;4.08;1.65;;;;;;;4.22;84.33;99246.60;2869739;82;21644;-72
2022/02/07 09:24:37;;;;;;;3.05;1.75;;;;;;;4.37;84.29;99259.61;2871022;82;21533;-71
2022/02/07 09:28:39;;;;;;;8.65;1.85;;;;;;;4.36;84.13;99260.11;2870257;82;21039;-73
2022/02/07 09:32:40;;;;;;;8.20;2.87;;;;;;;4.45;84.47;99278.81;2870151;82;21027;-71
2022/02/07 09:36:43;;;;;;;4.95;2.12;;;;;;;4.54;83.55;99288.20;2870537;82;21019;-71
2022/02/07 09:40:53;;;;;;;19.95;2.15;;;;;;;4.64;83.89;99293.64;2869496;82;21070;-73
2022/02/07 09:44:54;;;;;;;1.22;1.12;;;;;;;4.75;82.11;99302.07;2869947;82;21019;-73
2022/02/07 09:48:55;;;;;;;2.75;1.77;;;;;;;4.89;80.62;99297.09;2871581;82;21091;-71
2022/02/07 09:52:57;;;;;;;5.70;2.30;;;;;;;5.04;80.18;99317.54;2870857;82;21463;-73
2022/02/07 09:56:59;;;;;;;3.58;1.72;;;;;;;5.15;79.79;99329.92;2869694;82;21051;-73
2022/02/07 10:01:03;;;;;;;4.15;1.42;;;;;;;5.21;75.68;99325.95;2875803;82;21078;-71
2022/02/07 10:05:11;;;;;;;3.98;2.12;;;;;;;5.34;73.36;99329.86;2878232;82;21055;-73
2022/02/07 10:09:42;;;;;;;4.30;1.17;;;;;;;5.31;72.25;99353.83;2877446;82;21039;-71
2022/02/07 10:13:42;;;;;;;3.50;1.40;;;;;;;4.85;81.68;99334.71;2872842;82;20988;-69
2022/02/07 10:43:21;;;;;;;4.37;1.40;;;;;;;4.68;85.66;99378.08;2877478;82;21572;-73
2022/02/07 10:47:27;;;;;;;7.53;2.22;;;;;;;4.89;84.36;99394.59;2877291;82;21078;-73
2022/02/07 10:51:31;;;;;;;3.58;2.85;;;;;;;5.07;83.88;99416.16;2876479;82;21047;-73
2022/02/07 10:55:36;;;;;;;2.90;1.65;;;;;;;5.27;81.21;99423.91;2883929;82;21520;-72
2022/02/07 10:59:37;;;;;;;9.90;5.60;;;;;;;5.26;80.96;99430.14;2883138;82;21059;-71
2022/02/07 11:03:46;;;;;;;4.53;2.15;;;;;;;5.27;78.75;99419.13;2884609;82;21521;-72
2022/02/07 11:07:43;;;;;;;8.28;2.37;;;;;;;5.25;79.54;99448.23;2882780;82;21043;-73
2022/02/07 11:16:01;;;;;;;5.80;3.15;;;;;;;5.28;80.04;99450.64;2884531;82;21008;-74
2022/02/07 11:20:20;;;;;;;29.92;12.53;;;;;;;5.35;77.75;99456.81;2869563;82;21012;-74
2022/02/07 11:28:43;;;;;;;5.83;2.15;;;;;;;5.48;78.01;99435.14;2814575;84;21061;-71
2022/02/07 11:32:52;;;;;;;2.50;1.23;;;;;;;5.47;79.29;99461.16;2817157;83;21018;-73
2022/02/07 11:36:52;;;;;;;9.48;3.47;;;;;;;5.52;78.41;99455.09;2856702;82;21086;-74
2022/02/07 11:41:01;;;;;;;4.53;1.57;;;;;;;5.60;78.96;99464.22;2867643;81;21037;-72
2022/02/07 11:45:08;;;;;;;2.80;1.87;;;;;;;5.66;78.23;99476.95;2861199;82;21051;-73
2022/02/07 11:49:11;;;;;;;5.37;3.62;;;;;;;5.69;79.23;99477.57;2886654;82;20987;-71
2022/02/07 11:53:16;;;;;;;7.30;4.20;;;;;;;5.62;75.63;99480.31;2882266;82;20987;-73
2022/02/07 11:57:21;;;;;;;5.28;2.90;;;;;;;5.60;75.30;99491.92;2867989;82;21027;-71
2022/02/07 12:01:47;;;;;;;4.80;1.80;;;;;;;5.70;75.78;99479.75;2885590;82;21106;-71
2022/02/07 12:05:52;;;;;;;3.80;1.33;;;;;;;5.74;76.52;99481.66;2886051;82;20976;-71
2022/02/07 12:14:37;;;;;;;9.23;2.33;;;;;;;5.71;77.23;99486.21;2870714;82;21055;-72
2022/02/07 12:18:39;;;;;;;1.85;1.37;;;;;;;5.47;80.53;99509.14;2867070;82;21051;-73
2022/02/07 12:22:58;;;;;;;3.72;1.90;;;;;;;5.28;83.17;99515.25;2882505;82;21489;-73
2022/02/07 12:27:04;;;;;;;3.30;2.95;;;;;;;5.35;84.48;99541.20;2826061;83;21399;-71
2022/02/07 12:31:22;;;;;;;9.30;4.92;;;;;;;5.20;86.83;99565.53;2835481;83;21059;-73
2022/02/07 12:35:25;;;;;;;6.80;1.80;;;;;;;5.15;87.43;99582.53;2853382;82;22206;-72
2022/02/07 12:39:26;;;;;;;2.87;1.57;;;;;;;5.17;88.23;99583.75;2883872;82;21704;-71
2022/02/07 12:43:32;;;;;;;4.65;2.65;;;;;;;5.18;86.99;99592.48;2871292;82;22239;-72
2022/02/07 12:47:35;;;;;;;3.65;1.87;;;;;;;5.21;86.59;99599.72;2864551;82;21098;-71
2022/02/07 12:51:44;;;;;;;29.05;18.02;;;;;;;5.24;85.46;99620.59;2871444;82;21043;-72
2022/02/07 12:55:47;;;;;;;12.80;8.85;;;;;;;5.36;83.53;99641.80;2928718;80;21050;-71
2022/02/07 12:59:53;;;;;;;9.45;5.03;;;;;;;5.38;82.83;99639.39;2883618;81;21066;-73
2022/02/07 13:04:00;;;;;;;11.20;4.37;;;;;;;5.57;82.49;99638.95;2853405;83;21036;-74
2022/02/07 13:08:02;;;;;;;5.15;2.80;;;;;;;5.61;80.57;99648.81;2950792;80;21026;-70
2022/02/07 13:16:11;;;;;;;11.43;6.60;;;;;;;5.70;78.94;99657.87;2871989;82;21024;-73
2022/02/07 13:20:17;;;;;;;9.65;4.28;;;;;;;5.73;77.92;99664.24;2870288;82;21666;-74
2022/02/07 13:24:24;;;;;;;2.52;1.80;;;;;;;5.80;77.69;99666.80;2874650;82;21027;-70
2022/02/07 13:28:28;;;;;;;9.63;3.95;;;;;;;5.82;76.46;99685.17;2854474;83;21042;-71
2022/02/07 13:32:31;;;;;;;8.78;3.22;;;;;;;5.84;76.80;99684.09;2908858;80;21018;-71
2022/02/07 13:36:41;;;;;;;3.00;1.90;;;;;;;5.80;78.02;99691.88;2869947;82;21074;-70
2022/02/07 13:40:49;;;;;;;6.90;3.33;;;;;;;5.76;76.76;99718.13;2864615;82;21256;-71
2022/02/07 13:44:53;;;;;;;3.52;2.12;;;;;;;5.84;75.86;99707.02;2880414;82;21015;-71
2022/02/07 13:48:57;;;;;;;8.18;4.25;;;;;;;5.90;75.75;99733.47;2860075;82;21058;-71
2022/02/07 13:53:04;;;;;;;55.78;26.35;;;;;;;5.96;75.36;99738.30;2870601;82;21019;-73
2022/02/07 13:57:05;;;;;;;23.92;2.33;;;;;;;5.92;74.83;99750.03;2870357;82;21070;-72
2022/02/07 14:01:10;;;;;;;9.33;4.78;;;;;;;5.98;73.86;99760.98;2872066;82;21063;-73
2022/02/07 14:05:13;;;;;;;4.42;2.50;;;;;;;5.99;73.27;99779.86;2865037;82;21049;-73
2022/02/07 14:09:15;;;;;;;6.42;3.22;;;;;;;6.01;74.40;99763.92;2853712;83;21015;-68
2022/02/07 14:13:17;;;;;;;7.75;3.22;;;;;;;6.10;73.10;99773.84;2856495;83;21043;-68
2022/02/07 14:17:19;;;;;;;6.87;4.17;;;;;;;6.12;73.87;99782.49;2855325;83;21362;-71
2022/02/07 14:21:26;;;;;;;9.45;3.33;;;;;;;6.19;73.73;99778.08;2865011;82;21074;-73
2022/02/07 14:25:29;;;;;;;11.63;3.95;;;;;;;6.16;73.57;99796.80;2861692;82;21094;-71
2022/02/07 14:29:31;;;;;;;14.83;5.15;;;;;;;6.24;74.02;99783.88;2879423;82;21043;-73
2022/02/07 14:33:32;;;;;;;13.75;4.00;;;;;;;6.22;71.62;99790.60;2863918;82;21031;-72
2022/02/07 14:37:34;;;;;;;4.30;2.30;;;;;;;6.32;73.57;99804.45;2855070;82;21067;-69
2022/02/07 14:41:36;;;;;;;8.10;3.52;;;;;;;6.29;73.55;99812.97;2854911;82;21015;-68
2022/02/07 14:45:43;;;;;;;6.33;3.72;;;;;;;6.21;74.31;99827.22;2856101;83;21086;-68
2022/02/07 14:49:41;;;;;;;4.65;3.05;;;;;;;6.24;74.48;99834.05;2855985;82;20992;-69
2022/02/07 14:53:43;;;;;;;11.65;4.47;;;;;;;6.33;74.12;99836.06;2859303;82;20988;-70
2022/02/07 14:57:45;;;;;;;7.92;4.00;;;;;;;6.33;75.11;99843.98;2875526;82;21043;-67
2022/02/07 15:01:47;;;;;;;6.10;3.90;;;;;;;6.18;74.69;99852.98;2865411;82;21042;-69
2022/02/07 15:05:53;;;;;;;9.75;3.10;;;;;;;6.14;74.35;99853.21;2868783;82;21011;-71
2022/02/07 15:09:54;;;;;;;9.25;4.05;;;;;;;6.11;74.51;99853.89;2867206;82;21066;-68
2022/02/07 15:13:55;;;;;;;42.80;4.65;;;;;;;5.92;76.40;99852.50;2868420;82;21070;-67
2022/02/07 15:18:02;;;;;;;6.78;4.70;;;;;;;5.74;76.50;99863.01;2868739;82;21000;-67
2022/02/07 15:22:03;;;;;;;8.25;3.55;;;;;;;5.78;76.83;99867.98;2867865;82;21643;-69
2022/02/07 15:26:05;;;;;;;16.80;6.10;;;;;;;5.82;77.67;99867.30;2869055;82;21082;-70
2022/02/07 15:30:07;;;;;;;11.97;5.10;;;;;;;5.87;77.80;99886.30;2850728;80;21074;-68
2022/02/07 15:34:09;;;;;;;6.90;3.45;;;;;;;5.84;79.21;99886.02;2838833;83;21035;-68
2022/02/07 15:38:11;;;;;;;8.35;3.00;;;;;;;5.39;79.85;99882.92;2838208;83;21034;-69
2022/02/07 15:42:13;;;;;;;5.05;2.25;;;;;;;5.13;80.56;99903.95;2837113;83;21585;-70
2022/02/07 15:46:15;;;;;;;13.55;3.15;;;;;;;4.88;80.01;99905.52;2855026;81;21089;-73
2022/02/07 15:50:16;;;;;;;5.95;3.05;;;;;;;4.69;78.34;99914.59;2878255;81;21034;-69
2022/02/07 15:54:18;;;;;;;5.03;2.37;;;;;;;4.70;78.15;99941.32;2880092;82;21019;-68
2022/02/07 15:58:20;;;;;;;8.55;2.80;;;;;;;4.64;77.77;99954.89;2857560;82;21516;-74
2022/02/07 16:02:30;;;;;;;11.83;3.33;;;;;;;4.55;78.70;99961.58;2845070;82;21576;-75
2022/02/07 16:06:28;;;;;;;13.32;2.50;;;;;;;4.54;79.48;99970.91;2881262;82;21054;-67
2022/02/07 16:10:34;;;;;;;12.93;3.87;;;;;;;4.38;81.33;99985.02;2879915;82;21003;-69
2022/02/07 16:14:35;;;;;;;5.60;3.77;;;;;;;4.45;82.43;99990.76;2892429;81;21082;-75
2022/02/07 16:18:43;;;;;;;8.88;2.62;;;;;;;4.38;83.58;99997.31;2896922;81;21073;-72
2022/02/07 16:22:41;;;;;;;12.30;4.50;;;;;;;4.32;84.39;100008.23;2897949;81;21057;-75
2022/02/07 16:26:44;;;;;;;8.40;3.90;;;;;;;4.32;84.25;100030.62;2850006;83;21002;-72
2022/02/07 16:30:47;;;;;;;12.63;4.45;;;;;;;4.24;84.68;100044.23;2901969;81;21007;-75
2022/02/07 16:34:49;;;;;;;10.00;3.98;;;;;;;4.23;84.60;100049.99;2866614;82;21020;-72
2022/02/07 16:38:51;;;;;;;10.85;4.67;;;;;;;4.24;84.59;100064.84;2862616;82;21556;-70
2022/02/07 16:42:53;;;;;;;9.25;4.05;;;;;;;4.26;84.28;100083.17;2837564;82;20992;-77
2022/02/07 16:46:55;;;;;;;11.68;4.85;;;;;;;4.20;83.11;100094.91;2804202;82;21046;-74
2022/02/07 16:50:57;;;;;;;11.68;4.30;;;;;;;4.32;82.58;100110.45;2817818;82;21051;-69
2022/02/07 16:54:58;;;;;;;18.30;7.05;;;;;;;4.24;82.13;100125.41;2815490;83;21059;-73
2022/02/07 16:59:01;;;;;;;12.68;5.72;;;;;;;4.27;81.10;100123.91;2814747;84;21428;-67
2022/02/07 17:03:05;;;;;;;17.02;4.62;;;;;;;4.26;80.89;100136.70;2848571;81;21090;-70
2022/02/07 17:07:07;;;;;;;9.10;4.95;;;;;;;4.25;81.21;100156.52;2857755;82;21031;-71
2022/02/07 17:11:10;;;;;;;15.13;6.65;;;;;;;4.35;81.24;100150.25;2855756;82;21055;-70
2022/02/07 17:15:13;;;;;;;12.10;6.55;;;;;;;4.49;81.07;100162.61;2864625;82;22006;-71
2022/02/07 17:19:15;;;;;;;13.48;6.28;;;;;;;4.61;80.69;100157.09;2869743;82;21032;-74
2022/02/07 17:23:17;;;;;;;13.98;6.10;;;;;;;4.59;80.60;100174.33;2870223;82;21031;-69
2022/02/07 17:27:19;;;;;;;11.83;4.95;;;;;;;4.60;80.16;100185.24;2865901;81;21035;-68
2022/02/07 17:31:21;;;;;;;19.15;6.05;;;;;;;4.75;79.24;100190.06;2859455;81;21007;-74
2022/02/07 17:35:22;;;;;;;9.75;5.97;;;;;;;4.86;78.83;100193.38;2864512;81;21540;-68
2022/02/07 17:39:25;;;;;;;12.07;4.78;;;;;;;4.73;78.57;100196.39;2852406;81;21061;-72
2022/02/07 17:43:33;;;;;;;11.08;5.62;;;;;;;4.61;78.53;100197.47;2844929;83;20966;-66
2022/02/07 17:47:33;;;;;;;7.87;5.53;;;;;;;4.46;79.12;100193.95;2847423;81;21047;-68
2022/02/07 17:51:36;;;;;;;13.35;5.28;;;;;;;4.37;79.48;100219.03;2879568;82;21787;-69
2022/02/07 17:55:38;;;;;;;7.83;3.77;;;;;;;4.34;79.23;100235.47;2885235;82;21011;-68
2022/02/07 17:59:39;;;;;;;9.20;6.15;;;;;;;4.13;80.20;100244.50;2874714;82;21074;-68
2022/02/07 18:03:41;;;;;;;9.83;5.12;;;;;;;3.91;80.39;100264.56;2877708;82;21039;-68
2022/02/07 18:07:43;;;;;;;14.18;5.45;;;;;;;3.91;80.47;100259.75;2883560;81;21023;-68
2022/02/07 18:11:44;;;;;;;10.93;4.55;;;;;;;3.78;80.80;100270.97;2880568;82;21493;-67
2022/02/07 18:15:46;;;;;;;14.58;5.85;;;;;;;3.74;80.78;100286.98;2888431;80;20987;-66
2022/02/07 18:19:55;;;;;;;7.05;3.60;;;;;;;3.74;80.92;100298.37;2865616;81;21030;-66
2022/02/07 18:23:53;;;;;;;14.78;4.87;;;;;;;3.69;81.07;100317.03;2878023;81;21058;-70
2022/02/07 18:27:58;;;;;;;7.00;3.33;;;;;;;3.69;81.09;100314.85;2878558;82;21027;-67
2022/02/07 18:32:00;;;;;;;23.20;4.90;;;;;;;3.66;81.42;100315.88;2877971;82;21027;-64
2022/02/07 18:36:10;;;;;;;9.08;4.25;;;;;;;3.73;81.46;100337.43;2878119;82;20991;-65
2022/02/07 18:40:13;;;;;;;11.20;3.75;;;;;;;3.74;81.62;100332.58;2880920;82;21067;-67
2022/02/07 18:44:18;;;;;;;11.50;4.00;;;;;;;3.85;81.43;100329.38;2872638;82;21580;-68
2022/02/07 18:48:19;;;;;;;9.38;5.08;;;;;;;3.98;81.24;100351.95;2889056;82;21428;-70
2022/02/07 18:52:21;;;;;;;9.38;4.95;;;;;;;4.06;81.15;100349.73;2890476;82;21506;-70
2022/02/07 18:56:24;;;;;;;10.45;5.12;;;;;;;4.16;80.00;100358.48;2885286;82;21352;-71
2022/02/07 19:00:28;;;;;;;11.48;4.62;;;;;;;4.18;79.76;100374.55;2880329;81;21038;-68
2022/02/07 19:08:54;;;;;;;10.98;6.22;;;;;;;4.10;80.21;100394.70;2875387;81;21030;-70
2022/02/07 19:12:57;;;;;;;6.92;4.80;;;;;;;4.09;80.38;100378.53;2870711;81;21509;-68
2022/02/07 19:16:58;;;;;;;11.03;4.17;;;;;;;4.11;80.80;100391.14;2873463;80;20983;-68
2022/02/07 19:21:05;;;;;;;9.53;4.80;;;;;;;4.13;80.73;100390.63;2875713;81;21043;-69
2022/02/07 19:25:18;;;;;;;11.50;4.03;;;;;;;4.17;81.52;100390.45;2871299;81;21027;-68
2022/02/07 19:33:28;;;;;;;6.87;2.98;;;;;;;4.25;80.90;100383.84;2866451;82;21507;-70
2022/02/07 19:37:28;;;;;;;8.58;3.87;;;;;;;4.29;80.63;100405.12;2874285;82;21019;-69
2022/02/07 19:41:42;;;;;;;10.30;3.70;;;;;;;4.30;80.29;100413.86;2875878;82;21620;-68
2022/02/07 19:45:36;;;;;;;14.00;5.42;;;;;;;4.23;80.38;100432.25;2896839;81;21007;-68
2022/02/07 19:49:37;;;;;;;15.10;5.37;;;;;;;4.06;80.61;100408.14;2881054;81;21066;-72
2022/02/07 19:53:39;;;;;;;13.62;5.90;;;;;;;4.13;81.16;100430.56;2880450;81;21384;-71
2022/02/07 19:57:40;;;;;;;9.30;3.77;;;;;;;4.02;80.81;100419.28;2874946;82;21583;-68
2022/02/07 20:01:44;;;;;;;12.18;3.00;;;;;;;3.95;80.87;100437.66;2868433;81;21810;-68
2022/02/07 20:05:46;;;;;;;9.75;4.00;;;;;;;3.98;81.28;100424.33;2895289;81;21515;-68
2022/02/07 20:09:52;;;;;;;11.35;4.35;;;;;;;4.00;80.63;100433.00;2908429;81;21033;-71
2022/02/07 20:13:54;;;;;;;9.53;2.17;;;;;;;4.02;80.61;100450.87;2853825;83;21056;-68
2022/02/07 20:17:56;;;;;;;6.53;3.58;;;;;;;3.96;80.96;100459.09;2941458;80;21029;-71
2022/02/07 20:21:58;;;;;;;7.83;3.25;;;;;;;3.98;80.78;100442.75;2910880;80;21003;-71
2022/02/07 20:25:59;;;;;;;11.38;3.62;;;;;;;3.97;80.48;100472.64;2909047;81;21022;-67
2022/02/07 20:30:01;;;;;;;19.87;4.80;;;;;;;4.03;80.02;100455.20;2840037;83;21057;-67
2022/02/07 20:34:03;;;;;;;17.25;4.60;;;;;;;4.20;79.46;100467.97;2861711;82;21069;-72
2022/02/07 20:38:05;;;;;;;10.28;4.53;;;;;;;4.18;79.58;100473.30;2862542;82;21031;-72
2022/02/07 20:42:07;;;;;;;11.00;3.75;;;;;;;4.17;79.62;100478.66;2887449;81;21110;-68
2022/02/07 20:46:09;;;;;;;19.90;5.72;;;;;;;4.32;79.43;100475.20;2907421;81;21544;-67
2022/02/07 20:50:11;;;;;;;7.50;3.80;;;;;;;4.37;79.73;100482.87;2908038;81;21363;-71
2022/02/07 20:54:13;;;;;;;10.05;3.75;;;;;;;4.42;79.61;100489.59;2910560;81;21106;-71
2022/02/07 20:58:16;;;;;;;8.38;3.00;;;;;;;4.48;79.50;100488.88;2910052;81;21380;-72
2022/02/07 21:02:19;;;;;;;9.08;3.15;;;;;;;4.47;78.75;100461.70;2909134;81;21049;-71
2022/02/07 21:06:25;;;;;;;13.60;6.78;;;;;;;4.53;79.02;100488.20;2898845;81;21037;-67
2022/02/07 21:10:25;;;;;;;8.78;4.05;;;;;;;4.63;78.72;100488.55;2892905;81;21046;-69
2022/02/07 21:14:27;;;;;;;10.15;3.50;;;;;;;4.58;78.94;100497.53;2858318;81;21031;-72
2022/02/07 21:18:29;;;;;;;10.30;3.42;;;;;;;4.54;78.76;100485.45;2862712;82;21047;-70
2022/02/07 21:22:31;;;;;;;23.47;5.50;;;;;;;4.59;78.46;100481.27;2862541;82;21628;-73
2022/02/07 21:26:32;;;;;;;14.03;3.50;;;;;;;4.59;78.64;100502.34;2873326;82;21023;-68
2022/02/07 21:30:35;;;;;;;17.90;5.80;;;;;;;4.56;78.71;100517.00;2866096;82;21074;-69
2022/02/07 21:34:38;;;;;;;5.12;2.95;;;;;;;4.54;78.70;100522.34;2856651;82;21042;-68
2022/02/07 21:38:40;;;;;;;12.18;3.95;;;;;;;4.51;78.89;100527.78;2856369;83;21003;-67
2022/02/07 21:42:43;;;;;;;10.20;3.08;;;;;;;4.56;78.96;100523.59;2855026;82;21051;-67